Weather observations for the past three days for
Stanley Municipal Airport
Metric (Imperial)
Date Time (cdt) Wind (kph) Vis. (km) Weather Sky Cond. Temperature (ºC) Relative Humidity Wind Chill (°C) Heat Index (°C) Pressure Precipitation (cm)
Air Dwpt 6 hour altimeter (cm) sea level (mb) 1 hr 3 hr 6 hr
Max. Min.
08 06:55 NW 20 16.09 Fair CLR 5 -3 57% 1 75.62 0.0
08 06:35 NW 20 16.09 Fair CLR 3 -3 65% -1 75.59 0.0
08 06:15 NW 20 16.09 Fair CLR 3 -3 65% -1 75.59 0.0
08 05:55 NW 22 16.09 Fair CLR 4 -4 56% -0 75.57 0.0
08 05:35 NW 20 16.09 Fair CLR 5 -4 53% 1 75.57 0.0
08 05:15 NW 22 16.09 A Few Clouds FEW090 5 -3 57% 1 75.57 0.0
08 04:55 W 19 16.09 Mostly Cloudy BKN090 6 -4 49% 3 75.54 0.0
08 04:35 W 17 16.09 Overcast SCT065 SCT075 OVC090 6 -4 49% 3 75.54 0.0
08 04:15 NW 6 16.09 Overcast BKN065 OVC080 4 -5 52% 75.57 0.0
08 03:55 Calm 16.09 Overcast FEW065 OVC080 3 -4 60% 75.57 0.0
08 03:35 Calm 16.09 Mostly Cloudy BKN080 BKN110 4 -5 52% 75.59 0.0
08 03:15 Calm 16.09 Mostly Cloudy BKN080 BKN120 3 -5 56% 75.59 0.0
08 02:55 Calm 16.09 Mostly Cloudy BKN085 BKN120 4 -6 48% 75.59 0.0
08 02:35 Calm 16.09 Mostly Cloudy FEW045 BKN085 BKN110 5 -8 39% 75.59 0.0
08 02:15 N 9 16.09 Mostly Cloudy FEW055 SCT075 BKN090 5 -5 49% 3 75.62 0.0
08 01:55 Calm 16.09 Overcast FEW060 OVC075 5 -7 42% 75.62 0.0
08 01:35 Calm 16.09 Overcast BKN075 OVC100 3 -7 48% 75.62 0.0
08 01:15 Calm 16.09 Mostly Cloudy SCT075 BKN100 5 -7 42% 75.59 0.0
08 00:55 Calm 16.09 Mostly Cloudy FEW075 BKN100 4 -7 45% 75.59 0.0
08 00:35 Calm 16.09 Overcast FEW080 OVC100 6 -6 42% 75.59 0.0
08 00:15 S 6 16.09 Overcast BKN080 OVC095 6 -6 42% 75.59 0.0
07 23:55 Calm 16.09 Overcast SCT075 OVC095 6 -7 39% 75.62 0.0
07 23:35 Calm 16.09 Overcast BKN075 OVC100 6 -8 36% 75.62 0.0
07 23:15 SW 7 16.09 Overcast FEW065 BKN075 OVC100 6 -8 36% 5 75.62 0.0
07 22:55 S 7 16.09 Overcast SCT070 BKN080 OVC100 6 -8 36% 5 75.62 0.0
07 22:35 S 6 16.09 Mostly Cloudy FEW047 FEW080 BKN100 7 -7 37% 75.64 0.0
07 22:15 Calm 16.09 Overcast FEW075 OVC095 9 -7 32% 75.64 0.0
07 21:55 Calm 16.09 Overcast OVC100 10 -9 26% 75.64 0.0
07 21:35 NE 7 16.09 Overcast OVC090 11 -10 22% 75.62 0.0
07 21:15 NE 9 16.09 Overcast OVC090 12 -10 21% 75.62 0.0
07 20:55 NE 11 16.09 Overcast OVC095 12 -10 21% 75.62 0.0
07 20:35 NE 11 G 22 16.09 Mostly Cloudy BKN100 13 -10 19% 75.62 0.0
07 20:15 NE 20 16.09 A Few Clouds FEW080 FEW120 14 -10 18% 75.62 0.0
07 19:55 NE 20 16.09 Mostly Cloudy BKN080 BKN120 14 -10 18% 75.62 0.0
07 19:35 NW 15 16.09 Mostly Cloudy BKN080 15 -11 16% 75.62 0.0
07 19:15 NW 15 16.09 Fair CLR 15 -11 16% 75.62 0.0
07 18:55 NW 20 16.09 A Few Clouds FEW095 15 -11 16% 75.62 0.0
07 18:35 NW 20 G 30 16.09 A Few Clouds FEW100 15 -12 14% 75.62 0.0
07 18:15 NW 15 G 30 16.09 A Few Clouds FEW110 16 -12 13% 75.62 0.0
07 17:55 NW 17 G 31 16.09 Fair CLR 15 -12 14% 75.62 0.0
07 17:35 N 19 G 35 16.09 Fair CLR 15 -12 14% 75.62 0.0
07 17:15 NW 26 16.09 Fair CLR 16 -12 13% 75.64 0.0
07 16:55 NW 28 16.09 Fair CLR 16 -12 13% 75.67 0.0
07 16:35 NW 20 G 37 16.09 Fair CLR 15 -12 14% 75.67 0.0
07 16:15 NW 19 G 33 16.09 Fair CLR 15 -12 14% 75.69 0.0
07 15:35 NW 22 16.09 Fair CLR 15 -12 14% 75.72 0.0
07 15:15 NW 17 G 39 16.09 Fair CLR 15 -11 16% 75.72 0.0
07 14:55 Vrbl 11 G 31 16.09 Fair CLR 14 -12 15% 75.74 0.0
07 14:35 N 19 G 30 16.09 Fair CLR 15 -11 16% 75.74 0.0
07 14:15 Vrbl 9 G 28 16.09 Fair CLR 13 -12 16% 75.74 0.0
07 13:55 NW 19 16.09 Fair CLR 13 -11 18% 75.74 0.0
07 13:35 N 11 G 28 16.09 Fair CLR 13 -11 18% 75.74 0.0
07 13:15 N 17 G 30 16.09 Fair CLR 13 -11 18% 75.77 0.0
07 12:55 NW 20 16.09 Fair CLR 13 -11 18% 75.79 0.0
07 12:35 NW 15 G 26 16.09 Fair CLR 13 -11 18% 75.79 0.0
07 12:15 Vrbl 9 G 26 16.09 Fair CLR 12 -10 21% 75.79 0.0
07 11:55 N 15 G 31 16.09 Fair CLR 12 -11 19% 75.82 0.0
07 11:35 NW 22 16.09 Fair CLR 11 -11 20% 75.82 0.0
07 11:15 NW 15 16.09 Fair CLR 10 -10 24% 8 75.82 0.0
07 10:55 Vrbl 11 G 26 16.09 Fair CLR 10 -11 22% 9 75.84 0.0
07 10:35 NW 11 G 24 16.09 Fair CLR 10 -11 22% 9 75.84 0.0
07 10:15 NW 13 G 24 16.09 Fair CLR 10 -11 22% 8 75.84 0.0
07 09:55 N 17 16.09 Fair CLR 9 -10 25% 7 75.84 0.0
07 09:35 NW 15 16.09 Fair CLR 9 -9 27% 7 75.84 0.0
07 09:15 NW 15 16.09 Fair CLR 8 -6 37% 6 75.84 0.0
07 08:55 NW 9 16.09 Fair CLR 6 -6 42% 4 75.84 0.0
07 08:35 Calm 16.09 Fair CLR 3 -3 65% 75.84 0.0
07 08:15 Calm 16.09 Fair CLR 1 -3 75% 75.84 0.0
07 07:55 Calm 16.09 Fair CLR 0 -4 75% 75.82 0.0
07 07:35 Calm 16.09 Fair CLR -2 -6 74% 75.82 0.0
07 07:15 Calm 16.09 Fair CLR -4 -6 86% 75.82 0.0
07 06:55 Calm 16.09 Fair CLR -4 -6 86% 75.79 0.0
07 06:35 Calm 16.09 Fair CLR -4 -7 80% 75.79 0.0
07 06:15 Calm 16.09 Fair CLR -4 -6 86% 75.79 0.0
07 05:55 Calm 16.09 Fair CLR -4 -6 86% 75.79 0.0
07 05:35 Calm 16.09 Partly Cloudy FEW032 SCT044 -5 -6 93% 75.79 0.0
07 05:15 Calm 16.09 Partly Cloudy FEW032 SCT041 SCT046 -4 -7 80% 75.82 0.0
07 04:55 Calm 16.09 Partly Cloudy FEW033 SCT043 -4 -7 80% 75.82 0.0
07 04:35 Calm 16.09 Mostly Cloudy SCT035 BKN045 -2 -6 74% 75.82 0.0
07 04:15 Calm 16.09 Mostly Cloudy FEW036 BKN045 -3 -7 74% 75.82 0.0
07 03:55 Calm 16.09 Partly Cloudy FEW036 SCT045 -4 -7 80% 75.82 0.0
07 03:35 Calm 16.09 Mostly Cloudy FEW035 SCT040 BKN046 -2 -4 86% 75.82 0.0
07 03:15 Calm 16.09 Mostly Cloudy FEW030 SCT036 BKN047 -3 -5 86% 75.82 0.0
07 02:55 Calm 16.09 Mostly Cloudy SCT036 BKN044 BKN049 -2 -7 69% 75.84 0.0
07 02:35 Calm 16.09 Mostly Cloudy FEW034 BKN045 -2 -7 69% 75.84 0.0
07 02:15 Calm 16.09 Mostly Cloudy FEW032 SCT042 BKN048 -3 -7 74% 75.82 0.0
07 01:55 Calm 16.09 Mostly Cloudy FEW035 BKN045 -2 -7 69% 75.82 0.0
07 01:35 Calm 16.09 Partly Cloudy FEW036 SCT044 SCT050 -1 -5 75% 75.84 0.0
07 01:15 NE 6 16.09 Mostly Cloudy FEW035 BKN044 BKN050 -1 -5 75% 75.84 0.0
07 00:55 Calm 16.09 Partly Cloudy FEW035 SCT045 -1 -7 64% 75.84 0.0
07 00:35 Calm 16.09 Mostly Cloudy FEW037 BKN047 -1 -8 59% 75.84 0.0
07 00:15 Calm 16.09 Mostly Cloudy FEW037 BKN045 0 -8 55% 75.84 0.0
06 23:55 Calm 16.09 Mostly Cloudy SCT037 BKN044 BKN050 1 -8 51% 75.84 0.0
06 23:35 SE 7 16.09 Mostly Cloudy SCT036 BKN046 1 -8 51% -1 75.84 0.0
06 23:15 E 7 16.09 Partly Cloudy SCT040 SCT046 2 -8 48% 0 75.84 0.0
06 22:55 E 7 16.09 Mostly Cloudy FEW036 BKN045 2 -6 56% 0 75.87 0.0
06 22:35 Calm 16.09 Partly Cloudy FEW036 SCT045 2 -7 52% 75.87 0.0
06 22:15 Calm 16.09 A Few Clouds FEW047 3 -8 45% 75.87 0.0
06 21:55 E 6 16.09 Fair CLR 5 -8 39% 75.87 0.0
06 21:35 NE 9 16.09 Fair CLR 6 -9 34% 4 75.87 0.0
06 21:15 NE 11 1.21 Sky Obscured with Haze VV005 6 -9 34% 4 75.84 0.0
06 20:55 NE 13 6.44 Fair with Haze CLR 8 -9 29% 6 75.84 0.0
06 20:35 NE 15 16.09 Fair CLR 9 -9 27% 7 75.84 0.0
06 20:15 N 7 16.09 Fair CLR 10 -11 22% 9 75.84 0.0
06 19:55 NW 7 16.09 Partly Cloudy SCT090 10 -11 22% 9 75.84 0.0
06 19:35 N 11 16.09 Partly Cloudy SCT090 10 -10 24% 9 75.87 0.0
06 19:15 N 11 16.09 A Few Clouds FEW090 10 -10 24% 9 75.87 0.0
06 18:55 NW 20 16.09 Partly Cloudy SCT090 11 -11 20% 75.9 0.0
06 18:35 NW 9 G 20 16.09 Mostly Cloudy SCT080 BKN090 10 -10 24% 9 75.9 0.0
06 18:15 NW 13 G 22 16.09 Mostly Cloudy BKN080 BKN090 10 -10 24% 8 75.92 0.0
06 17:55 NW 20 G 31 16.09 Mostly Cloudy SCT075 BKN090 11 -11 20% 75.92 0.0
06 17:35 NW 13 G 24 16.09 Mostly Cloudy BKN070 BKN085 10 -9 26% 8 75.95 0.0
06 17:15 N 13 16.09 Partly Cloudy SCT075 10 -8 28% 8 75.95 0.0
06 16:55 NW 17 G 31 16.09 Partly Cloudy SCT070 SCT080 10 -8 28% 8 75.97 0.0
06 16:35 NW 13 16.09 Mostly Cloudy BKN065 BKN075 BKN080 9 -8 29% 7 76.02 0.0
06 16:15 NW 22 16.09 Mostly Cloudy BKN065 BKN075 9 -8 29% 6 76.02 0.0
06 15:55 NW 19 G 30 16.09 Mostly Cloudy BKN060 BKN075 9 -8 29% 7 76.05 0.0
06 15:35 N 19 16.09 Overcast BKN060 OVC075 8 -8 32% 5 76.05 0.0
06 15:15 NW 24 16.09 Mostly Cloudy BKN060 BKN075 9 -8 29% 6 76.07 0.0
06 14:55 NW 19 G 31 16.09 Mostly Cloudy BKN055 8 -8 32% 5 76.1 0.0
06 14:35 NW 19 G 30 16.09 Partly Cloudy SCT055 8 -8 32% 5 76.1 0.0
06 14:15 N 24 16.09 A Few Clouds FEW055 9 -8 29% 6 76.12 0.0
06 13:55 NW 22 G 33 16.09 Fair CLR 8 -7 34% 5 76.15 0.0
06 13:35 NW 20 G 33 16.09 A Few Clouds FEW050 8 -7 34% 5 76.15 0.0
06 13:15 NW 13 G 33 16.09 A Few Clouds FEW050 7 -7 37% 5 76.17 0.0
06 12:55 NW 13 G 35 16.09 Fair CLR 7 -7 37% 5 76.2 0.0
06 12:35 N 17 G 30 16.09 Fair CLR 6 -7 39% 3 76.23 0.0
06 12:15 N 17 G 43 16.09 Fair CLR 6 -7 39% 3 76.23 0.0
06 11:55 NW 17 G 28 16.09 Fair CLR 6 -7 39% 3 76.25 0.0
06 11:35 N 20 16.09 Fair CLR 5 -7 42% 1 76.28 0.0
06 11:15 NW 22 16.09 A Few Clouds FEW041 5 -7 42% 1 76.28 0.0
06 10:55 NW 15 G 28 16.09 Partly Cloudy SCT038 4 -7 45% 1 76.28 0.0
06 10:35 NW 17 16.09 A Few Clouds FEW037 3 -7 48% -1 76.28 0.0
06 10:15 NW 20 16.09 Fair CLR 4 -6 48% 0 76.3 0.0
06 09:55 N 24 G 33 16.09 Fair CLR 3 -6 52% -2 76.3 0.0
06 09:35 NW 24 16.09 Fair CLR 3 -6 52% -2 76.3 0.0
06 09:15 NW 24 16.09 Fair CLR 2 -6 56% -3 76.3 0.0
06 08:55 NW 22 16.09 Fair CLR 2 -6 56% -3 76.33 0.0
06 08:35 N 19 16.09 Fair CLR 1 -6 60% -3 76.33 0.0
06 08:15 NW 15 16.09 Fair CLR 0 -6 64% -4 76.3 0.0
06 07:55 NW 15 16.09 Partly Cloudy SCT045 -2 -6 74% -6 76.3 0.0
06 07:35 N 15 16.09 Overcast OVC045 -1 -6 69% -5 76.3 0.0
06 07:15 W 13 16.09 Overcast OVC047 -2 -6 74% -6 76.28 0.0
06 06:55 W 11 16.09 Overcast BKN041 OVC048 -1 -7 64% -4 76.28 0.0
06 06:35 NW 17 16.09 Overcast OVC041 -1 -6 69% -6 76.28 0.0
06 06:15 W 11 16.09 Overcast OVC043 -1 -6 69% -4 76.28 0.0
06 05:55 W 13 16.09 Overcast OVC048 -1 -6 69% -5 76.28 0.0
06 05:35 W 11 16.09 Overcast OVC048 -1 -6 69% -4 76.28 0.0
06 05:15 W 9 16.09 Overcast OVC049 -1 -6 69% -4 76.28 0.0
06 04:55 W 11 16.09 Overcast OVC048 -1 -6 69% -4 76.28 0.0
06 04:35 Calm 16.09 Overcast OVC047 -1 -6 69% 76.28 0.0
06 04:15 SW 7 16.09 Overcast OVC047 -1 -6 69% -3 76.28 0.0
06 03:55 SW 9 16.09 Overcast OVC046 -1 -5 75% -4 76.28 0.0
06 03:35 W 7 16.09 Overcast OVC046 -1 -5 75% -3 76.28 0.0
06 03:15 W 7 16.09 Overcast OVC046 -1 -5 75% -3 76.28 0.0
06 02:55 SW 9 16.09 Overcast OVC047 -1 -4 80% -4 76.28 0.0
06 02:35 W 7 16.09 Overcast OVC049 -1 -6 69% -3 76.28 0.0
06 02:15 NW 6 16.09 Overcast OVC050 -1 -6 69% 76.28 0.0
06 01:55 Calm 16.09 Overcast OVC050 -1 -6 69% 76.3 0.0
06 00:55 Calm 16.09 Overcast OVC055 -3 -7 74% 76.3 0.0
06 00:35 NE 7 16.09 Overcast FEW050 OVC055 -2 -7 69% -4 76.28 0.0
06 00:15 NE 7 16.09 Overcast SCT050 OVC060 -2 -6 74% -4 76.28 0.0
05 23:55 NE 7 16.09 Mostly Cloudy FEW050 BKN055 -2 -7 69% -4 76.28 0.0
05 23:35 N 7 16.09 Mostly Cloudy SCT049 BKN055 -1 -7 64% -3 76.28 0.0
05 23:15 N 7 16.09 Overcast OVC055 0 -7 60% -2 76.28 0.0
05 22:55 N 7 16.09 Overcast FEW048 OVC055 0 -7 60% -2 76.25 0.0
05 22:35 N 11 16.09 Overcast SCT050 OVC055 1 -7 56% -2 76.25 0.0
05 22:15 N 11 16.09 Overcast OVC055 2 -8 48% -1 76.23 0.0
05 21:55 NE 11 16.09 Overcast FEW050 OVC060 2 -8 48% -1 76.23 0.0
05 21:35 NE 11 16.09 Overcast SCT055 OVC110 3 -8 45% 0 76.2 0.0
05 21:15 NE 15 0.00 Overcast OVC110 4 -8 42% 1 76.17 0.0
05 20:55 NE 15 11.27 Overcast OVC110 4 -8 42% 1 76.15 0.0
05 20:35 NE 22 16.09 Overcast FEW060 OVC110 4 -8 42% -0 76.15 0.0
05 20:15 N 22 16.09 Overcast FEW055 BKN060 OVC110 5 -9 36% 1 76.12 0.0
05 19:55 N 24 16.09 Overcast OVC060 5 -9 36% 1 76.12 0.0
05 19:35 N 24 16.09 Overcast OVC060 5 -9 36% 1 76.1 0.0
05 19:15 NW 22 G 37 16.09 Overcast BKN060 OVC120 6 -10 31% 2 76.1 0.0
05 18:55 N 30 16.09 Partly Cloudy FEW050 SCT060 SCT120 6 -10 31% 2 76.1 0.0
05 18:35 N 26 G 37 16.09 Partly Cloudy SCT060 5 -9 36% 1 76.1 0.0
05 18:15 N 30 16.09 A Few Clouds FEW060 6 -10 31% 2 76.07 0.0
05 17:55 N 33 G 61 16.09 A Few Clouds and Breezy FEW060 6 -10 31% 1 76.07 0.0
05 17:35 N 35 G 50 16.09 A Few Clouds and Breezy FEW060 6 -10 31% 1 76.07 0.0
05 17:15 N 26 G 37 16.09 Mostly Cloudy BKN060 6 -10 31% 2 76.07 0.0
05 16:55 N 28 G 43 16.09 Overcast OVC060 6 -10 31% 2 76.07 0.0
05 16:35 N 24 G 41 16.09 Mostly Cloudy BKN055 6 -10 31% 2 76.1 0.0
05 16:15 N 33 G 43 16.09 Mostly Cloudy and Breezy BKN055 6 -10 31% 1 76.1 0.0
05 15:55 N 30 G 41 16.09 Partly Cloudy SCT050 SCT055 5 -9 36% 0 76.1 0.0
05 15:35 NW 19 G 37 16.09 Mostly Cloudy SCT050 BKN055 4 -9 39% 0 76.12 0.0
05 15:15 NW 24 G 41 16.09 Mostly Cloudy SCT050 BKN055 5 -9 36% 1 76.12 0.0
05 14:55 NW 28 G 50 16.09 Overcast BKN050 OVC055 5 -9 36% 1 76.12 0.0
05 14:35 NW 30 G 43 16.09 Overcast BKN048 OVC055 5 -9 36% 0 76.15 0.0
05 14:15 N 28 16.09 Overcast OVC048 4 -9 39% -1 76.12 0.0
05 13:55 N 33 16.09 Overcast and Breezy BKN045 OVC050 4 -9 39% -1 76.12 0.0
05 13:35 N 41 G 50 16.09 Overcast and Breezy OVC047 4 -10 36% -2 76.12 0.0
05 13:15 N 28 G 44 16.09 Mostly Cloudy BKN046 3 -9 41% -2 76.12 0.0
05 12:55 N 30 G 48 16.09 Overcast OVC044 3 -9 41% -2 76.1 0.0
05 12:35 N 31 G 43 16.09 Overcast OVC044 3 -9 41% -2 76.12 0.0
05 12:15 NW 37 G 48 16.09 Overcast and Breezy OVC044 3 -9 41% -3 76.1 0.0
05 11:55 NW 35 G 48 16.09 Overcast and Breezy OVC044 3 -9 41% -3 76.1 0.0
05 11:35 NW 28 G 44 16.09 Overcast OVC042 3 -9 41% -2 76.1 0.0
05 11:15 NW 33 G 44 16.09 Overcast and Breezy OVC042 3 -9 41% -2 76.07 0.0
05 10:55 NW 37 G 48 16.09 Overcast and Breezy OVC042 2 -9 44% -4 76.07 0.0
05 10:35 NW 30 G 48 16.09 Mostly Cloudy BKN044 BKN055 BKN090 4 -8 42% -1 76.07 0.0
05 10:15 N 30 G 39 16.09 Mostly Cloudy FEW041 SCT060 BKN090 2 -8 48% -3 76.07 0.0
05 09:55 NW 28 16.09 Mostly Cloudy SCT055 BKN090 2 -8 48% -3 76.07 0.0
05 09:35 NW 24 G 35 16.09 Overcast FEW065 OVC090 2 -8 48% -3 76.07 0.0
05 09:15 N 26 16.09 Overcast FEW065 OVC085 1 -8 51% -4 76.07 0.0
05 08:55 NW 26 16.09 Overcast OVC090 1 -8 51% -4 76.05 0.0
05 08:35 N 28 16.09 Overcast OVC090 1 -8 51% -5 76.05 0.0
05 08:15 N 24 16.09 Overcast FEW065 OVC090 1 -8 51% -4 76.02 0.0
05 07:55 N 26 16.09 Overcast BKN060 OVC085 1 -7 56% -4 76.02 0.0
05 07:35 NW 24 16.09 Overcast OVC060 0 -7 60% -5 76 0.0
Date Time (cdt) Wind (kph) Vis. (km) Weather Sky Cond. Air Dwpt Max. Min. Relative Humidity Wind Chill (°C) Heat Index (°C) altimeter (cm) sea level (mb) 1 hr 3 hr 6 hr
6 hour
Temperature (ºC) Pressure Precipitation (cm)